createdAt,value
2024-04-11T00:04:45.741Z,1.4
2024-04-11T00:09:45.898Z,1.4
2024-04-11T00:14:46.172Z,1.5
2024-04-11T00:19:46.354Z,1.4
2024-04-11T00:24:46.558Z,1.2
2024-04-11T00:29:46.782Z,1
2024-04-11T00:34:47.019Z,1.1
2024-04-11T00:39:47.209Z,1.6
2024-04-11T00:44:47.397Z,1.3
2024-04-11T00:49:47.603Z,1.1
2024-04-11T00:54:47.755Z,1.4
2024-04-11T00:59:47.979Z,1.4
2024-04-11T01:04:48.187Z,1.5
2024-04-11T01:09:48.390Z,1.5
2024-04-11T01:14:48.658Z,1.1
2024-04-11T01:19:48.932Z,1.3
2024-04-11T01:24:49.155Z,1.3
2024-04-11T01:29:49.086Z,1.3
2024-04-11T01:34:49.323Z,1.3
2024-04-11T01:39:49.427Z,1.4
2024-04-11T01:44:49.634Z,1.3
2024-04-11T01:49:49.779Z,1.2
2024-04-11T01:54:49.979Z,1.5
2024-04-11T01:59:50.230Z,1
2024-04-11T02:04:50.412Z,1.1
2024-04-11T02:09:50.474Z,1.4
2024-04-11T02:14:50.752Z,1.1
2024-04-11T02:19:50.901Z,1
2024-04-11T02:24:51.053Z,1.1
2024-04-11T02:29:51.284Z,0.8
2024-04-11T02:34:51.486Z,0.8
2024-04-11T02:39:51.566Z,1
2024-04-11T02:44:51.775Z,0.8
2024-04-11T02:49:51.939Z,1
2024-04-11T02:54:52.110Z,0.9
2024-04-11T02:59:52.289Z,1
2024-04-11T03:04:52.477Z,0.8
2024-04-11T03:09:52.625Z,1.1
2024-04-11T03:14:52.797Z,1.1
2024-04-11T03:19:52.941Z,1
2024-04-11T03:24:53.103Z,1.1
2024-04-11T03:29:54.803Z,0.9
2024-04-11T03:34:53.427Z,1.2
2024-04-11T03:39:53.622Z,1.3
2024-04-11T03:44:53.791Z,0.9
2024-04-11T03:49:53.962Z,1
2024-04-11T03:54:54.127Z,1
2024-04-11T03:59:54.331Z,1
2024-04-11T04:04:54.534Z,0.9
2024-04-11T04:09:54.630Z,0.7
2024-04-11T04:14:54.874Z,1.1
2024-04-11T04:19:54.986Z,0.9
2024-04-11T04:24:55.143Z,0.8
2024-04-11T04:29:55.395Z,0.9
2024-04-11T04:34:55.519Z,1
2024-04-11T04:39:59.797Z,0.9
2024-04-11T04:44:55.968Z,1
2024-04-11T04:49:56.072Z,1
2024-04-11T04:54:56.199Z,1.2
2024-04-11T04:59:56.371Z,1
2024-04-11T05:04:56.560Z,1
2024-04-11T05:09:56.709Z,0.8
2024-04-11T05:14:56.890Z,0.8
2024-04-11T05:19:57.031Z,1.1
2024-04-11T05:24:57.231Z,0.8
2024-04-11T05:29:57.464Z,1.2
2024-04-11T05:34:57.648Z,1.2
2024-04-11T05:39:57.854Z,0.9
2024-04-11T05:44:58.074Z,0.8
2024-04-11T05:49:58.243Z,0.9
2024-04-11T05:54:58.464Z,0.9
2024-04-11T05:59:58.679Z,0.9
2024-04-11T06:04:58.817Z,0.9
2024-04-11T06:09:59.034Z,1.2
2024-04-11T06:14:59.254Z,0.9
2024-04-11T06:19:59.433Z,0.9
2024-04-11T06:24:59.656Z,1.2
2024-04-11T06:29:59.922Z,1.1
2024-04-11T06:35:00.151Z,0.9
2024-04-11T06:40:00.301Z,0.9
2024-04-11T06:45:00.451Z,1.2
2024-04-11T06:50:00.684Z,1
2024-04-11T06:55:00.777Z,1
2024-04-11T07:00:01.021Z,1.2
2024-04-11T07:05:01.159Z,1.1
2024-04-11T07:10:01.408Z,1
2024-04-11T07:15:01.568Z,0.8
2024-04-11T07:20:01.701Z,1.2
2024-04-11T07:25:01.900Z,0.8
2024-04-11T07:30:02.093Z,1.1
2024-04-11T07:35:02.250Z,1.1
2024-04-11T07:40:02.412Z,1
2024-04-11T07:45:02.650Z,1.1
2024-04-11T07:50:02.963Z,1.2
2024-04-11T07:55:03.001Z,1
2024-04-11T08:00:03.258Z,1.4
2024-04-11T08:05:03.410Z,1
2024-04-11T08:10:03.600Z,1
2024-04-11T08:15:05.699Z,1.2
2024-04-11T08:20:03.996Z,1
2024-04-11T08:25:04.214Z,1.2
2024-04-11T08:30:04.472Z,1.5
2024-04-11T08:35:04.613Z,1.1
2024-04-11T08:40:04.821Z,1.1
2024-04-11T08:45:05.023Z,1.3
2024-04-11T08:50:05.256Z,1.3
2024-04-11T08:55:05.402Z,1.2
2024-04-11T09:00:05.916Z,1.2
2024-04-11T09:05:08.016Z,1.1
2024-04-11T09:10:06.139Z,1.1
2024-04-11T09:15:06.386Z,1.6
2024-04-11T09:20:06.601Z,1.6
2024-04-11T09:25:10.586Z,1.3
2024-04-11T09:30:07.036Z,1.3
2024-04-11T09:35:07.262Z,1.1
2024-04-11T09:40:07.487Z,1
2024-04-11T09:45:07.738Z,1.5
2024-04-11T09:50:07.989Z,0.9
2024-04-11T09:55:08.117Z,1
2024-04-11T10:00:08.391Z,1.3
2024-04-11T10:05:08.607Z,1.6
2024-04-11T10:10:08.832Z,1.3
2024-04-11T10:15:09.028Z,1.4
2024-04-11T10:20:09.313Z,1.4
2024-04-11T10:25:09.549Z,1.6
2024-04-11T10:30:09.855Z,1.4
2024-04-11T10:35:10.075Z,1.4
2024-04-11T10:40:10.407Z,1.4
2024-04-11T10:45:10.616Z,1.4
2024-04-11T10:50:10.895Z,1.2
2024-04-11T10:55:11.171Z,1.4
2024-04-11T11:00:11.430Z,1
2024-04-11T11:05:11.726Z,1.6
2024-04-11T11:10:11.952Z,1.6
2024-04-11T11:15:12.237Z,1.4
2024-04-11T11:20:12.532Z,1.3
2024-04-11T11:25:12.842Z,1.4
2024-04-11T11:30:13.058Z,1.4
2024-04-11T11:35:13.298Z,1.1
2024-04-11T11:40:13.595Z,1.2
2024-04-11T11:45:13.792Z,1.5
2024-04-11T11:50:19.342Z,1.1
2024-04-11T11:55:14.440Z,1.2
2024-04-11T12:00:14.626Z,1.1
2024-04-11T12:05:14.911Z,1.2
2024-04-11T12:10:15.153Z,1.3
2024-04-11T12:15:15.447Z,1.4
2024-04-11T12:20:15.678Z,1.2
2024-04-11T12:25:15.968Z,1.4
2024-04-11T12:30:16.247Z,1.4
2024-04-11T12:35:16.544Z,1.4
2024-04-11T12:40:18.351Z,1
2024-04-11T12:45:17.180Z,1.2
2024-04-11T12:50:17.441Z,1.2
2024-04-11T12:55:17.704Z,1.3
2024-04-11T13:00:17.990Z,1.3
2024-04-11T13:05:18.352Z,1.4
2024-04-11T13:10:18.601Z,1.2
2024-04-11T13:15:18.881Z,1.4
2024-04-11T13:20:19.196Z,1.2
2024-04-11T13:25:19.487Z,1.4
2024-04-11T13:30:19.782Z,1.3
2024-04-11T13:35:20.078Z,1.6
2024-04-11T13:40:20.347Z,1.4
2024-04-11T13:45:20.655Z,1.4
2024-04-11T13:50:21.034Z,1.4
2024-04-11T13:55:21.326Z,1.4
2024-04-11T14:00:21.673Z,1.5
2024-04-11T14:05:22.170Z,1.6
2024-04-11T14:10:25.184Z,1.3
2024-04-11T14:15:23.537Z,1.3
2024-04-11T14:20:23.563Z,1.1
2024-04-11T14:25:23.921Z,1.3
2024-04-11T14:30:23.592Z,1.4
2024-04-11T14:35:23.960Z,1.3
2024-04-11T14:40:24.327Z,1.3
2024-04-11T14:45:24.608Z,1.4
2024-04-11T14:50:24.934Z,1.4
2024-04-11T14:55:25.269Z,1.3
2024-04-11T15:00:25.573Z,1.7
2024-04-11T15:05:25.942Z,1.1
2024-04-11T15:10:26.336Z,1.6
2024-04-11T15:15:26.678Z,1.4
2024-04-11T15:20:27.092Z,1.4
2024-04-11T15:25:27.379Z,1.3
2024-04-11T15:30:27.733Z,1.5
2024-04-11T15:35:28.119Z,1.5
2024-04-11T15:40:28.432Z,1.4
2024-04-11T15:45:28.821Z,1.5
2024-04-11T15:50:29.152Z,1.5
2024-04-11T15:55:29.514Z,1.4
2024-04-11T16:00:29.853Z,1.6
2024-04-11T16:05:30.242Z,2.3
2024-04-11T16:10:30.627Z,1.6
2024-04-11T16:15:30.991Z,1.8
2024-04-11T16:20:31.397Z,1.7
2024-04-11T16:25:31.736Z,1.7
2024-04-11T16:30:32.089Z,1.5
2024-04-11T16:35:32.477Z,1.4
2024-04-11T16:40:32.833Z,1.6
2024-04-11T16:45:33.150Z,1.5
2024-04-11T16:50:33.484Z,1.7
2024-04-11T16:55:34.011Z,1.5
2024-04-11T17:00:34.230Z,1.5
2024-04-11T17:05:34.639Z,1.3
2024-04-11T17:10:35.128Z,1.3
2024-04-11T17:15:35.312Z,1.6
2024-04-11T17:20:35.706Z,1.4
2024-04-11T17:25:36.085Z,1.5
2024-04-11T17:30:36.414Z,1.6
2024-04-11T17:35:36.783Z,1.2
2024-04-11T17:40:37.143Z,1.1
2024-04-11T17:45:37.486Z,1.4
2024-04-11T17:50:37.897Z,1.2
2024-04-11T17:55:38.208Z,1.5
2024-04-11T18:00:38.807Z,1
2024-04-11T18:05:38.952Z,1.5
2024-04-11T18:10:39.440Z,1.6
2024-04-11T18:15:39.651Z,1.4
2024-04-11T18:20:40.038Z,1.4
2024-04-11T18:25:40.353Z,1.3
2024-04-11T18:30:40.713Z,1.5
2024-04-11T18:35:41.150Z,1.1
2024-04-11T18:40:41.458Z,1.5
2024-04-11T18:45:41.835Z,1.4
2024-04-11T18:50:42.196Z,1.5
2024-04-11T18:55:42.565Z,1.4
2024-04-11T19:00:42.966Z,1.4
2024-04-11T19:05:43.394Z,1.7
2024-04-11T19:10:43.720Z,1.6
2024-04-11T19:15:44.056Z,1.3
2024-04-11T19:20:44.424Z,1.4
2024-04-11T19:25:44.732Z,1.4
2024-04-11T19:30:45.178Z,1.6
2024-04-11T19:35:45.544Z,1.6
2024-04-11T19:40:45.927Z,1.6
2024-04-11T19:45:46.252Z,1.8
2024-04-11T19:50:46.626Z,1.6
2024-04-11T19:55:46.946Z,1.8
2024-04-11T20:00:47.423Z,1.6
2024-04-11T20:05:47.808Z,1.4
2024-04-11T20:10:48.078Z,1.3
2024-04-11T20:15:48.401Z,1.2
2024-04-11T20:20:48.786Z,1.8
2024-04-11T20:25:52.623Z,1.5
2024-04-11T20:30:49.522Z,1.6
2024-04-11T20:35:49.907Z,1.7
2024-04-11T20:40:50.247Z,1.4
2024-04-11T20:45:50.620Z,1.7
2024-04-11T20:50:51.069Z,1.8
2024-04-11T21:00:51.792Z,1.5
2024-04-11T21:05:52.133Z,1.1
2024-04-11T21:15:52.790Z,1.7
2024-04-11T21:20:53.131Z,1.4
2024-04-11T21:25:53.481Z,1.4
2024-04-11T21:30:53.826Z,1.7
2024-04-11T21:35:54.271Z,1.5
2024-04-11T21:40:54.618Z,1.7
2024-04-11T21:45:54.981Z,1.7
2024-04-11T21:50:55.340Z,2.3
2024-04-11T21:55:55.753Z,1.9
2024-04-11T22:00:56.072Z,2
2024-04-11T22:05:56.464Z,1.6
2024-04-11T22:10:56.759Z,1.6
2024-04-11T22:15:57.112Z,1.7
2024-04-11T22:20:57.626Z,1.5
2024-04-11T22:25:57.825Z,1.9
2024-04-11T22:30:58.201Z,1.7
2024-04-11T22:35:58.617Z,2.1
2024-04-11T22:40:58.952Z,1.7
2024-04-11T22:45:59.326Z,1.9
2024-04-11T22:50:59.677Z,2.2
2024-04-11T22:55:59.993Z,2.2
2024-04-11T23:01:00.399Z,1.9
2024-04-11T23:06:00.784Z,2
2024-04-11T23:11:01.209Z,1.9
2024-04-11T23:16:01.503Z,1.9
2024-04-11T23:21:01.854Z,2
2024-04-11T23:26:02.142Z,1.9
2024-04-11T23:31:06.529Z,2
2024-04-11T23:36:02.939Z,1.9
2024-04-11T23:41:03.251Z,2.1
2024-04-11T23:46:03.622Z,1.9
2024-04-11T23:51:04.091Z,1.9
2024-04-11T23:56:04.309Z,1.8
